Time,TemperatureF,DewpointF,PressureIn,WindDirection,WindDirectionDegrees,WindSpeedMPH,WindSpeedGustMPH,Humidity,HourlyPrecipIn,Conditions,Clouds,dailyrainin,SoftwareType,DateUTC
2013-05-14 00:01:00,47.0,40.0,-100.00,West,265,12.0,16.0,76,-99.99,,,0.00,,2013-05-14 06:01:00,
2013-05-14 00:12:00,47.0,40.0,-100.00,WSW,250,9.0,12.0,75,-99.99,,,0.00,,2013-05-14 06:12:00,
2013-05-14 00:22:00,47.0,40.0,-100.00,WSW,250,9.0,12.0,75,-99.99,,,0.00,,2013-05-14 06:22:00,
2013-05-14 01:00:00,45.0,34.0,-100.00,WSW,250,16.0,19.0,65,-99.99,,,0.00,,2013-05-14 07:00:00,
2013-05-14 01:11:00,46.0,36.0,-100.00,WSW,245,16.0,21.0,66,-99.99,,,0.00,,2013-05-14 07:11:00,
2013-05-14 01:21:00,46.0,36.0,-100.00,WSW,245,16.0,21.0,66,-99.99,,,0.00,,2013-05-14 07:21:00,
2013-05-14 01:31:00,45.0,34.0,-100.00,WSW,250,16.0,19.0,65,-99.99,,,0.00,,2013-05-14 07:31:00,
2013-05-14 01:41:00,45.0,34.0,-100.00,WSW,250,16.0,19.0,65,-99.99,,,0.00,,2013-05-14 07:41:00,
2013-05-14 01:52:00,45.0,34.0,-100.00,WSW,250,16.0,19.0,65,-99.99,,,0.00,,2013-05-14 07:52:00,
2013-05-14 02:01:00,45.0,34.0,-100.00,SW,220,15.0,18.0,64,-99.99,,,0.00,,2013-05-14 08:01:00,
2013-05-14 02:11:00,45.0,32.0,-100.00,SW,235,15.0,19.0,60,-99.99,,,0.00,,2013-05-14 08:11:00,
2013-05-14 02:21:00,45.0,32.0,-100.00,SW,235,15.0,19.0,60,-99.99,,,0.00,,2013-05-14 08:21:00,
2013-05-14 02:31:00,45.0,34.0,-100.00,SW,220,15.0,18.0,64,-99.99,,,0.00,,2013-05-14 08:31:00,
2013-05-14 02:41:00,45.0,34.0,-100.00,SW,220,15.0,18.0,64,-99.99,,,0.00,,2013-05-14 08:41:00,
2013-05-14 02:51:00,45.0,34.0,-100.00,SW,220,15.0,18.0,64,-99.99,,,0.00,,2013-05-14 08:51:00,
2013-05-14 03:02:00,42.0,28.0,-100.00,North,355,2.0,7.0,57,-99.99,,,0.00,,2013-05-14 09:02:00,
2013-05-14 03:11:00,44.0,32.0,-100.00,WSW,240,9.0,15.0,63,-99.99,,,0.00,,2013-05-14 09:11:00,
2013-05-14 03:21:00,44.0,32.0,-100.00,WSW,240,9.0,15.0,63,-99.99,,,0.00,,2013-05-14 09:21:00,
2013-05-14 03:32:00,42.0,28.0,-100.00,North,355,2.0,7.0,57,-99.99,,,0.00,,2013-05-14 09:32:00,
2013-05-14 03:44:00,42.0,28.0,-100.00,North,355,2.0,7.0,57,-99.99,,,0.00,,2013-05-14 09:44:00,
2013-05-14 03:54:00,42.0,28.0,-100.00,North,355,2.0,7.0,57,-99.99,,,0.00,,2013-05-14 09:54:00,
2013-05-14 04:01:00,42.0,30.0,-100.00,WNW,300,5.0,15.0,60,-99.99,,,0.00,,2013-05-14 10:01:00,
2013-05-14 04:14:00,42.0,29.0,-100.00,NNW,345,9.0,14.0,60,-99.99,,,0.00,,2013-05-14 10:14:00,
2013-05-14 04:25:00,42.0,29.0,-100.00,NNW,345,9.0,14.0,60,-99.99,,,0.00,,2013-05-14 10:25:00,
2013-05-14 04:32:00,42.0,30.0,-100.00,WNW,300,5.0,15.0,60,-99.99,,,0.00,,2013-05-14 10:32:00,
2013-05-14 04:42:00,42.0,30.0,-100.00,WNW,300,5.0,15.0,60,-99.99,,,0.00,,2013-05-14 10:42:00,
2013-05-14 04:52:00,42.0,30.0,-100.00,WNW,300,5.0,15.0,60,-99.99,,,0.00,,2013-05-14 10:52:00,
2013-05-14 05:01:00,42.0,30.0,-100.00,SW,225,15.0,17.0,64,-99.99,,,0.00,,2013-05-14 11:01:00,
2013-05-14 05:11:00,42.0,29.0,-100.00,West,270,8.0,16.0,60,-99.99,,,0.00,,2013-05-14 11:11:00,
2013-05-14 05:21:00,42.0,29.0,-100.00,West,270,8.0,16.0,60,-99.99,,,0.00,,2013-05-14 11:21:00,
2013-05-14 05:32:00,42.0,30.0,-100.00,SW,225,15.0,17.0,64,-99.99,,,0.00,,2013-05-14 11:32:00,
2013-05-14 05:43:00,42.0,30.0,-100.00,SW,225,15.0,17.0,64,-99.99,,,0.00,,2013-05-14 11:43:00,
2013-05-14 05:52:00,42.0,30.0,-100.00,SW,225,15.0,17.0,64,-99.99,,,0.00,,2013-05-14 11:52:00,
2013-05-14 06:32:00,41.0,33.0,-100.00,SW,220,14.0,19.0,71,-99.99,,,0.00,,2013-05-14 12:32:00,
2013-05-14 06:41:00,41.0,31.0,-100.00,SW,230,8.0,12.0,69,-99.99,,,0.00,,2013-05-14 12:41:00,
2013-05-14 06:42:00,41.0,33.0,-100.00,SW,220,14.0,19.0,71,-99.99,,,0.00,,2013-05-14 12:42:00,
2013-05-14 06:51:00,41.0,32.0,-100.00,SW,235,9.0,15.0,70,-99.99,,,0.00,,2013-05-14 12:51:00,
2013-05-14 07:00:00,41.0,31.0,-100.00,SW,230,9.0,12.0,68,-99.99,,,0.00,,2013-05-14 13:00:00,
2013-05-14 07:01:00,41.0,32.0,-100.00,SW,235,9.0,15.0,70,-99.99,,,0.00,,2013-05-14 13:01:00,
2013-05-14 07:11:00,41.0,31.0,-100.00,SW,230,8.0,12.0,69,-99.99,,,0.00,,2013-05-14 13:11:00,
2013-05-14 07:22:00,41.0,31.0,-100.00,SW,230,8.0,12.0,69,-99.99,,,0.00,,2013-05-14 13:22:00,
2013-05-14 07:32:00,41.0,31.0,-100.00,SW,230,8.0,12.0,69,-99.99,,,0.00,,2013-05-14 13:32:00,
2013-05-14 07:52:00,41.0,31.0,-100.00,SW,230,9.0,12.0,68,-99.99,,,0.00,,2013-05-14 13:52:00,
2013-05-14 08:11:00,41.0,31.0,-100.00,WSW,250,6.0,9.0,67,-99.99,,,0.00,,2013-05-14 14:11:00,
2013-05-14 08:22:00,41.0,31.0,-100.00,WSW,250,6.0,9.0,67,-99.99,,,0.00,,2013-05-14 14:22:00,
2013-05-14 08:31:00,41.0,31.0,-100.00,SSW,210,9.0,12.0,67,-99.99,,,-99.99,,2013-05-14 14:31:00,
2013-05-14 08:41:00,41.0,31.0,-100.00,SSW,210,9.0,12.0,67,-99.99,,,-99.99,,2013-05-14 14:41:00,
2013-05-14 08:52:00,42.0,31.0,-100.00,SW,225,9.0,16.0,64,-99.99,,,0.00,,2013-05-14 14:52:00,
2013-05-14 09:00:00,42.0,31.0,-100.00,WSW,245,14.0,15.0,64,-99.99,,,0.00,,2013-05-14 15:00:00,
2013-05-14 09:01:00,42.0,31.0,-100.00,SW,225,9.0,16.0,64,-99.99,,,0.00,,2013-05-14 15:01:00,
2013-05-14 09:12:00,42.0,30.0,-100.00,WSW,255,8.0,13.0,62,-99.99,,,0.00,,2013-05-14 15:12:00,
2013-05-14 09:21:00,42.0,30.0,-100.00,WSW,255,8.0,13.0,62,-99.99,,,0.00,,2013-05-14 15:21:00,
2013-05-14 09:32:00,42.0,31.0,-100.00,WSW,245,14.0,15.0,64,-99.99,,,0.00,,2013-05-14 15:32:00,
2013-05-14 09:43:00,42.0,31.0,-100.00,WSW,245,14.0,15.0,64,-99.99,,,0.00,,2013-05-14 15:43:00,
2013-05-14 09:53:00,42.0,31.0,-100.00,WSW,245,14.0,15.0,64,-99.99,,,0.00,,2013-05-14 15:53:00,
2013-05-14 10:12:00,44.0,32.0,-100.00,SW,235,11.0,14.0,63,-99.99,,,0.00,,2013-05-14 16:12:00,
2013-05-14 10:23:00,44.0,32.0,-100.00,SW,235,11.0,14.0,63,-99.99,,,0.00,,2013-05-14 16:23:00,
2013-05-14 10:33:00,45.0,29.0,-100.00,SW,225,10.0,13.0,54,-99.99,,,0.00,,2013-05-14 16:33:00,
2013-05-14 10:43:00,45.0,29.0,-100.00,SW,225,10.0,13.0,54,-99.99,,,0.00,,2013-05-14 16:43:00,
2013-05-14 10:54:00,46.0,27.0,-100.00,SW,225,8.0,11.0,47,-99.99,,,0.00,,2013-05-14 16:54:00,
2013-05-14 11:03:00,46.0,27.0,-100.00,SW,225,8.0,11.0,47,-99.99,,,0.00,,2013-05-14 17:03:00,
2013-05-14 11:13:00,46.0,27.0,-100.00,SW,225,8.0,11.0,47,-99.99,,,0.00,,2013-05-14 17:13:00,
2013-05-14 11:24:00,46.0,27.0,-100.00,SW,225,8.0,11.0,47,-99.99,,,0.00,,2013-05-14 17:24:00,
2013-05-14 11:32:00,48.0,29.0,-100.00,SW,225,11.0,14.0,47,-99.99,,,0.00,,2013-05-14 17:32:00,
2013-05-14 11:43:00,48.0,29.0,-100.00,SW,225,11.0,14.0,47,-99.99,,,0.00,,2013-05-14 17:43:00,
2013-05-14 11:52:00,48.0,29.0,-100.00,SW,230,14.0,17.0,47,-99.99,,,0.00,,2013-05-14 17:52:00,
2013-05-14 12:01:00,50.0,28.0,-100.00,SW,230,14.0,17.0,41,-99.99,,,0.00,,2013-05-14 18:01:00,
2013-05-14 12:02:00,48.0,29.0,-100.00,SW,230,14.0,17.0,47,-99.99,,,0.00,,2013-05-14 18:02:00,
2013-05-14 12:12:00,50.0,27.0,-100.00,SW,220,9.0,12.0,41,-99.99,,,0.00,,2013-05-14 18:12:00,
2013-05-14 12:22:00,50.0,27.0,-100.00,SW,220,9.0,12.0,41,-99.99,,,0.00,,2013-05-14 18:22:00,
2013-05-14 12:32:00,50.0,28.0,-100.00,SW,230,14.0,17.0,41,-99.99,,,0.00,,2013-05-14 18:32:00,
2013-05-14 12:42:00,50.0,28.0,-100.00,SW,230,14.0,17.0,41,-99.99,,,0.00,,2013-05-14 18:42:00,
2013-05-14 12:52:00,50.0,28.0,-100.00,SW,230,14.0,17.0,41,-99.99,,,0.00,,2013-05-14 18:52:00,
2013-05-14 13:11:00,52.0,23.0,-100.00,SW,230,12.0,19.0,32,-99.99,,,-99.99,,2013-05-14 19:11:00,
2013-05-14 13:22:00,52.0,23.0,-100.00,SW,230,12.0,19.0,32,-99.99,,,-99.99,,2013-05-14 19:22:00,
2013-05-14 13:31:00,52.0,22.0,-100.00,SW,220,13.0,17.0,30,-99.99,,,0.00,,2013-05-14 19:31:00,
2013-05-14 13:41:00,55.0,21.0,-100.00,SSW,200,12.0,22.0,26,-99.99,,,-99.99,,2013-05-14 19:41:00,
2013-05-14 13:42:00,52.0,22.0,-100.00,SW,220,13.0,17.0,30,-99.99,,,0.00,,2013-05-14 19:42:00,
2013-05-14 13:52:00,54.0,25.0,-100.00,West,270,7.0,17.0,32,-99.99,,,0.00,,2013-05-14 19:52:00,
2013-05-14 14:02:00,54.0,25.0,-100.00,West,270,7.0,17.0,32,-99.99,,,0.00,,2013-05-14 20:02:00,
2013-05-14 14:11:00,55.0,21.0,-100.00,SSW,200,12.0,22.0,26,-99.99,,,-99.99,,2013-05-14 20:11:00,
2013-05-14 14:22:00,55.0,21.0,-100.00,SSW,200,12.0,22.0,26,-99.99,,,-99.99,,2013-05-14 20:22:00,
2013-05-14 14:31:00,56.0,21.0,-100.00,West,275,12.0,18.0,25,-99.99,,,-99.99,,2013-05-14 20:31:00,
2013-05-14 14:32:00,55.0,21.0,-100.00,SSW,200,12.0,22.0,26,-99.99,,,-99.99,,2013-05-14 20:32:00,
2013-05-14 14:52:00,54.0,27.0,-100.00,SW,230,12.0,21.0,34,-99.99,,,-99.99,,2013-05-14 20:52:00,
2013-05-14 15:01:00,57.0,23.0,-100.00,NW,305,12.0,17.0,27,-99.99,,,0.00,,2013-05-14 21:01:00,
2013-05-14 15:03:00,54.0,27.0,-100.00,SW,230,12.0,21.0,34,-99.99,,,-99.99,,2013-05-14 21:03:00,
2013-05-14 15:12:00,56.0,21.0,-100.00,West,275,12.0,18.0,25,-99.99,,,-99.99,,2013-05-14 21:12:00,
2013-05-14 15:23:00,56.0,21.0,-100.00,West,275,12.0,18.0,25,-99.99,,,-99.99,,2013-05-14 21:23:00,
2013-05-14 15:52:00,57.0,23.0,-100.00,NW,305,12.0,17.0,27,-99.99,,,0.00,,2013-05-14 21:52:00,
2013-05-14 16:01:00,59.0,21.0,-100.00,NW,310,13.0,16.0,23,-99.99,,,0.00,,2013-05-14 22:01:00,
2013-05-14 16:34:00,59.0,21.0,-100.00,NW,310,13.0,16.0,23,-99.99,,,0.00,,2013-05-14 22:34:00,
2013-05-14 16:45:00,59.0,21.0,-100.00,NW,310,13.0,16.0,23,-99.99,,,0.00,,2013-05-14 22:45:00,
2013-05-14 16:54:00,59.0,21.0,-100.00,NW,310,13.0,16.0,23,-99.99,,,0.00,,2013-05-14 22:54:00,
2013-05-14 17:00:00,58.0,23.0,-100.00,WSW,250,11.0,15.0,26,-99.99,,,0.00,,2013-05-14 23:00:00,
2013-05-14 17:30:00,59.0,27.0,-100.00,WNW,300,10.0,12.0,29,-99.99,,,0.00,,2013-05-14 23:30:00,
2013-05-14 17:31:00,58.0,23.0,-100.00,WSW,250,11.0,15.0,26,-99.99,,,0.00,,2013-05-14 23:31:00,
2013-05-14 17:44:00,58.0,23.0,-100.00,WSW,250,11.0,15.0,26,-99.99,,,0.00,,2013-05-14 23:44:00,
2013-05-14 17:52:00,58.0,23.0,-100.00,WSW,250,11.0,15.0,26,-99.99,,,0.00,,2013-05-14 23:52:00,
2013-05-14 18:00:00,59.0,29.0,-100.00,WNW,290,10.0,16.0,32,-99.99,,,0.00,,2013-05-15 00:00:00,
2013-05-14 18:11:00,59.0,27.0,-100.00,WNW,300,10.0,12.0,29,-99.99,,,0.00,,2013-05-15 00:11:00,
2013-05-14 18:21:00,59.0,27.0,-100.00,WNW,300,10.0,12.0,29,-99.99,,,0.00,,2013-05-15 00:21:00,
2013-05-14 18:51:00,59.0,29.0,-100.00,WNW,290,10.0,16.0,32,-99.99,,,0.00,,2013-05-15 00:51:00,
2013-05-14 19:11:00,58.0,24.0,-100.00,NW,305,11.0,16.0,27,-99.99,,,0.00,,2013-05-15 01:11:00,
2013-05-14 19:21:00,58.0,24.0,-100.00,NW,305,11.0,16.0,27,-99.99,,,0.00,,2013-05-15 01:21:00,
2013-05-14 19:31:00,58.0,30.0,-100.00,West,270,8.0,16.0,34,-99.99,,,0.00,,2013-05-15 01:31:00,
2013-05-14 19:42:00,58.0,30.0,-100.00,West,270,8.0,16.0,34,-99.99,,,0.00,,2013-05-15 01:42:00,
2013-05-14 19:52:00,58.0,30.0,-100.00,West,270,8.0,16.0,34,-99.99,,,0.00,,2013-05-15 01:52:00,
2013-05-14 20:11:00,57.0,28.0,-100.00,WNW,295,9.0,13.0,33,-99.99,,,0.00,,2013-05-15 02:11:00,
2013-05-14 20:21:00,57.0,28.0,-100.00,WNW,295,9.0,13.0,33,-99.99,,,0.00,,2013-05-15 02:21:00,
2013-05-14 20:31:00,55.0,29.0,-100.00,WNW,300,8.0,12.0,37,-99.99,,,0.00,,2013-05-15 02:31:00,
2013-05-14 20:42:00,55.0,29.0,-100.00,WNW,300,8.0,12.0,37,-99.99,,,0.00,,2013-05-15 02:42:00,
2013-05-14 20:52:00,53.0,28.0,-100.00,West,280,9.0,11.0,38,-99.99,,,0.00,,2013-05-15 02:52:00,
2013-05-14 21:00:00,52.0,30.0,-100.00,West,275,9.0,13.0,43,-99.99,,,0.00,,2013-05-15 03:00:00,
2013-05-14 21:01:00,53.0,28.0,-100.00,West,280,9.0,11.0,38,-99.99,,,0.00,,2013-05-15 03:01:00,
2013-05-14 21:12:00,53.0,31.0,-100.00,WNW,285,9.0,12.0,43,-99.99,,,0.00,,2013-05-15 03:12:00,
2013-05-14 21:21:00,53.0,31.0,-100.00,WNW,285,9.0,12.0,43,-99.99,,,0.00,,2013-05-15 03:21:00,
2013-05-14 21:33:00,52.0,30.0,-100.00,West,275,9.0,13.0,43,-99.99,,,0.00,,2013-05-15 03:33:00,
2013-05-14 21:44:00,52.0,30.0,-100.00,West,275,9.0,13.0,43,-99.99,,,0.00,,2013-05-15 03:44:00,
2013-05-14 21:54:00,52.0,30.0,-100.00,West,275,9.0,13.0,43,-99.99,,,0.00,,2013-05-15 03:54:00,
2013-05-14 22:02:00,49.0,29.0,-100.00,WNW,290,7.0,11.0,45,-99.99,,,0.00,,2013-05-15 04:02:00,
2013-05-14 22:12:00,50.0,29.0,-100.00,WNW,290,7.0,9.0,45,-99.99,,,0.00,,2013-05-15 04:12:00,
2013-05-14 22:23:00,50.0,29.0,-100.00,WNW,290,7.0,9.0,45,-99.99,,,0.00,,2013-05-15 04:23:00,
2013-05-14 22:33:00,49.0,29.0,-100.00,WNW,290,7.0,11.0,45,-99.99,,,0.00,,2013-05-15 04:33:00,
2013-05-14 22:43:00,49.0,29.0,-100.00,WNW,290,7.0,11.0,45,-99.99,,,0.00,,2013-05-15 04:43:00,
2013-05-14 22:52:00,49.0,29.0,-100.00,WNW,290,7.0,11.0,45,-99.99,,,0.00,,2013-05-15 04:52:00,
2013-05-14 23:01:00,45.0,26.0,-100.00,ESE,105,1.0,3.0,48,-99.99,,,0.00,,2013-05-15 05:01:00,
2013-05-14 23:12:00,48.0,29.0,-100.00,WNW,300,6.0,9.0,48,-99.99,,,0.00,,2013-05-15 05:12:00,
2013-05-14 23:22:00,48.0,29.0,-100.00,WNW,300,6.0,9.0,48,-99.99,,,0.00,,2013-05-15 05:22:00,
2013-05-14 23:32:00,45.0,26.0,-100.00,ESE,105,1.0,3.0,48,-99.99,,,0.00,,2013-05-15 05:32:00,
2013-05-14 23:42:00,45.0,26.0,-100.00,ESE,105,1.0,3.0,48,-99.99,,,0.00,,2013-05-15 05:42:00,
2013-05-14 23:52:00,45.0,26.0,-100.00,ESE,105,1.0,3.0,48,-99.99,,,0.00,,2013-05-15 05:52:00,